Blackstone River @ Uxbridge, Ma

Blackstone River, Rt 122 near Uxbridge
 Total Drainage Area: 244 sq. miles 
 Drainage Area Controlled by Corps Dams: 28 sq. miles (11%) 
 Warning Flow/Stage: 2,320 cfs / 13.0 feet 
 Flood Flow/Stage: 5,660 cfs / 17.5 feet 
Date Time
(Eastern)
Stage
(ft)
Flow
(cfs)
CSM
(cfs / sq. mi.)
Jun-25 02:00 am 7.82 361 1.5
Jun-25 01:00 am 7.84 367 1.5
Jun-25 12:00 am 7.84 367 1.5
Jun-24 11:00 pm 7.85 370 1.5
Jun-24 10:00 pm 7.86 373 1.5
Jun-24 09:00 pm 7.87 376 1.5
Jun-24 08:00 pm 7.88 379 1.6
Jun-24 07:00 pm 7.90 385 1.6
Jun-24 06:00 pm 7.92 391 1.6
Jun-24 05:00 pm 7.95 400 1.6
Jun-24 04:00 pm 7.97 406 1.7
Jun-24 03:00 pm 7.99 412 1.7
Jun-24 02:00 pm 8.00 415 1.7
Jun-24 01:00 pm 8.03 424 1.7
Jun-24 12:00 pm 8.05 431 1.8
Jun-24 11:00 am 8.08 440 1.8
Jun-24 10:00 am 8.10 446 1.8
Jun-24 09:00 am 8.13 456 1.9
Jun-24 08:00 am 8.16 466 1.9
Jun-24 07:00 am 8.18 472 1.9
Jun-24 06:00 am 8.22 485 2.0
Jun-24 05:00 am 8.25 495 2.0
Jun-24 04:00 am 8.28 505 2.1
Jun-24 03:00 am 8.30 512 2.1
Jun-24 02:00 am 8.32 518 2.1
Report Generated June 25, 2024 06:20 am